METAR、SPECI、TAF(飛行場実況・予報)


■ METAR、SPECI(飛行場実況)

METAR RJFE 130300Z 04008KT 010V080 9999 FEW030 BKN/// 28/20 Q1004 RMK 1CU030 A2967
METAR RJFE 130400Z 04007KT 360V070 9999 FEW030 SCT/// 28/19 Q1004 RMK 1CU030 A2966
METAR RJFE 130500Z 20006KT 160V240 9999 FEW030 BKN/// 27/22 Q1004 RMK 1CU030 A2965
METAR RJFE 130600Z 21005KT 170V250 9999 FEW030 BKN/// 27/21 Q1004 RMK 1CU030 A2966
METAR RJFE 130700Z 20003KT 130V240 9999 FEW025 BKN/// 27/21 Q1004 RMK 1CU025 A2966
METAR RJFE 130700Z 20003KT 130V240 9999 FEW025 BKN/// 27/21 Q1004 RMK 1CU025 A2966
METAR RJFE 130800Z 15005KT 090V180 CAVOK 27/20 Q1004 RMK A2966
METAR RJFE 130900Z VRB02KT CAVOK 27/21 Q1004 RMK A2967
METAR RJFE 131000Z 36006KT 310V040 CAVOK 25/19 Q1005 RMK A2968
METAR RJFE 132300Z VRB03KT 9999 FEW010 SCT025 BKN/// 25/21 Q1007 RMK 1CU010 3CU025 A2974
METAR RJFE 140000Z 02004KT 350V060 9999 FEW015 BKN070 25/22 Q1007 RMK 1CU015 6AC070 A2974
METAR RJFE 140100Z 15007KT 100V210 9999 FEW015 SCT020 26/22 Q1007 RMK 1CU015 3CU020 A2974
METAR RJFE 140200Z VRB07KT 9999 FEW010 SCT020 BKN080 26/22 Q1006 RMK 1CU010 3CU020 5AC080 A2973
METAR RJFE 140300Z 16008KT 110V190 9999 FEW020 BKN080 26/21 Q1006 RMK 2CU020 5AC080 A2973
METAR RJFE 140400Z 16008KT 080V190 9999 FEW030 SCT/// 27/21 Q1006 RMK 1CU030 A2971
METAR RJFE 140500Z 18006KT 100V220 9999 FEW030 SCT080 BKN/// 26/20 Q1005 RMK 1CU030 3AC080 A2970
METAR RJFE 140600Z 17006KT 110V220 9999 FEW025 SCT080 BKN/// 27/20 Q1005 RMK 1CU025 4AC080 A2969
METAR RJFE 140700Z 17004KT 110V230 CAVOK 26/21 Q1005 RMK A2969
METAR RJFE 140800Z 19004KT CAVOK 26/20 Q1005 RMK A2968
METAR RJFE 140900Z 20005KT 9999 FEW020 SCT100 BKN/// 25/20 Q1005 RMK 1CU020 3AC100 A2970
METAR RJFE 141000Z 20003KT 170V230 9999 FEW020 SCT080 BKN/// 25/21 Q1006 RMK 1CU020 4AC080 A2971
METAR RJFE 142300Z 03007KT 9999 FEW035 SCT040 BKN050 24/21 Q1003 RMK 1CU035 3CU040 5SC050 A2964
METAR RJFE 150000Z 04006KT 010V080 9999 FEW035 SCT040 BKN070 25/21 Q1003 RMK 1CU035 4CU040 5AC070 A2964
METAR RJFE 150100Z 03007KT 360V070 9999 FEW035 SCT040 BKN050 26/20 Q1004 RMK 1CU035 3CU040 5SC050 A2965
METAR RJFE 150200Z 03006KT 350V080 9999 FEW030 SCT040 BKN060 26/20 Q1004 RMK 1CU030 3CU040 5SC060 A2965
METAR RJFE 150300Z 04006KT 010V080 9999 FEW030 SCT070 BKN/// 27/20 Q1003 RMK 1CU030 3AC070 A2964
METAR RJFE 150400Z 03006KT 360V080 9999 FEW030 SCT045 BKN/// 28/21 Q1003 RMK 1CU030 3SC045 A2962
METAR RJFE 150500Z 01008KT 9999 FEW035 SCT070 BKN/// 29/20 Q1002 RMK 1CU035 4AC070 A2961
METAR RJFE 150600Z 35010KT 320V030 9999 FEW040 SCT070 29/19 Q1002 RMK 1CU040 3AC070 A2961
METAR RJFE 150700Z 02010KT 9999 FEW040 BKN/// 28/20 Q1002 RMK 1CU040 A2961
METAR RJFE 150800Z 35006KT 310V040 CAVOK 27/20 Q1002 RMK A2960
METAR RJFE 150900Z VRB02KT CAVOK 27/19 Q1002 RMK A2960
METAR RJFE 151000Z 20004KT CAVOK 25/22 Q1002 RMK A2961

■ TAF(飛行場予報)


				

お知らせ

新着情報

  • 太陽光発電量推算
  • 気象予報士試験過去問・講座
  • Yahoo Weather shop
  • メルカリ Weather shop
  • BASE Weather shop

ご案内